BGM weather

Greater Binghamton/Edwin A Link field
Binghamton, New York, United States

Public forecast

Using degrees Fahrenheit for public forecast. Weather courtesy of forecast.io.

Current aviation weather report (METAR) for Greater Binghamton/Edwin A Link field

Retrieved 2019/11/15 08:53 UTC (1 hour ago):

KBGM 150853Z AUTO 21006KT 10SM CLR M02/M08 A3012 RMK AO2 SLP218 T10171083 56006

Aviation forecast (TAF) for Greater Binghamton/Edwin A Link field

Retrieved 2019/11/15 06:39 UTC (3 hours ago):

TAF KBGM 150536Z 1506/1606 22005KT P6SM FEW090 FM152000 28009KT P6SM BKN025 FM160500 35011KT P6SM SCT070